Thompson, Ohio
Current Conditions -  °F | °C
As of 12:53 PM on Thursday 30 Oct 2014 (Local Time) from KHZY Reporting Station
Overcast Overcast  
Wind Chill: 45°   Ceiling: 4100
Heat Index: 48°   Visibility: 10mi
Dew Point: 37°   Wind: 7mph
Humidity: 66%   Direction: 290°WNW
Pressure: 30.1"   Gusts: NA
Location:  41.69°N, 81.05°W
Report Text: KHZY 301653Z AUTO 29006KT 10SM OVC041 09/03 A3010 RMK AO2 SLP198 T00890028
Loading
Personal Weather Stations






























Interactive Weather Map
Tropical Storm Tracking
New forecast layout! Learn more

10-Day Weather Forecast

Advertisements
Track Severe Weather on mobile